createdAt,value
2019-03-30T00:02:10.873Z,23.38
2019-03-30T00:04:39.292Z,20.43
2019-03-30T00:07:07.675Z,24.05
2019-03-30T00:09:36.081Z,23.15
2019-03-30T00:12:04.510Z,21.23
2019-03-30T00:14:32.917Z,21.07
2019-03-30T00:17:01.287Z,21.05
2019-03-30T00:19:35.105Z,20.68
2019-03-30T00:21:59.707Z,20.08
2019-03-30T00:24:28.099Z,20.82
2019-03-30T00:26:56.470Z,21.20
2019-03-30T00:29:24.870Z,20.40
2019-03-30T00:31:53.254Z,21.52
2019-03-30T00:34:21.649Z,23.77
2019-03-30T00:36:50.025Z,24.35
2019-03-30T00:39:18.429Z,18.42
2019-03-30T00:41:48.058Z,20.05
2019-03-30T00:44:16.452Z,22.80
2019-03-30T00:46:44.828Z,20.57
2019-03-30T00:49:13.223Z,23.50
2019-03-30T00:51:41.596Z,25.77
2019-03-30T00:54:10.066Z,24.12
2019-03-30T00:56:38.434Z,21.80
2019-03-30T00:59:06.854Z,23.55
2019-03-30T01:01:35.228Z,24.15
2019-03-30T01:04:03.739Z,25.95
2019-03-30T01:06:32.105Z,25.82
2019-03-30T01:09:00.498Z,23.55
2019-03-30T01:11:28.879Z,25.43
2019-03-30T01:13:57.276Z,26.10
2019-03-30T01:16:25.664Z,24.63
2019-03-30T01:18:54.044Z,25.35
2019-03-30T01:21:22.490Z,24.02
2019-03-30T01:23:50.887Z,24.23
2019-03-30T01:26:19.254Z,24.35
2019-03-30T01:28:47.647Z,25.75
2019-03-30T01:31:16.030Z,26.80
2019-03-30T01:33:44.432Z,24.37
2019-03-30T01:36:12.802Z,24.25
2019-03-30T01:38:41.198Z,21.73
2019-03-30T01:41:09.580Z,22.77
2019-03-30T01:43:37.990Z,21.07
2019-03-30T01:46:06.350Z,22.55
2019-03-30T01:48:34.747Z,25.95
2019-03-30T01:51:03.128Z,20.70
2019-03-30T01:53:31.520Z,21.93
2019-03-30T01:55:59.898Z,22.35
2019-03-30T01:58:28.278Z,19.60
2019-03-30T02:00:56.683Z,25.55
2019-03-30T02:03:25.056Z,23.05
2019-03-30T02:05:53.446Z,22.73
2019-03-30T02:08:21.814Z,20.30
2019-03-30T02:10:50.136Z,21.25
2019-03-30T02:13:18.516Z,20.32
2019-03-30T02:15:46.911Z,23.75
2019-03-30T02:18:15.293Z,21.77
2019-03-30T02:20:44.941Z,20.88
2019-03-30T02:23:13.327Z,26.80
2019-03-30T02:25:41.723Z,25.32
2019-03-30T02:28:10.095Z,26.07
2019-03-30T02:30:38.492Z,22.67
2019-03-30T02:33:06.870Z,20.52
2019-03-30T02:35:35.273Z,23.67
2019-03-30T02:38:03.659Z,24.18
2019-03-30T02:40:32.052Z,23.35
2019-03-30T02:43:00.695Z,22.30
2019-03-30T02:45:29.080Z,20.62
2019-03-30T02:47:57.442Z,23.15
2019-03-30T02:50:25.854Z,24.32
2019-03-30T02:52:54.302Z,23.00
2019-03-30T02:55:22.687Z,23.12
2019-03-30T02:57:51.060Z,23.50
2019-03-30T03:00:19.818Z,22.15
2019-03-30T03:02:48.202Z,24.40
2019-03-30T03:05:16.662Z,22.58
2019-03-30T03:07:45.033Z,25.95
2019-03-30T03:10:13.417Z,19.90
2019-03-30T03:12:41.913Z,22.62
2019-03-30T03:15:10.321Z,22.77
2019-03-30T03:17:38.704Z,24.12
2019-03-30T03:20:07.152Z,20.55
2019-03-30T03:22:35.534Z,20.88
2019-03-30T03:25:06.073Z,22.87
2019-03-30T03:27:34.453Z,25.62
2019-03-30T03:30:02.842Z,23.73
2019-03-30T03:32:31.226Z,22.10
2019-03-30T03:34:59.611Z,23.02
2019-03-30T03:37:43.612Z,23.40
2019-03-30T03:39:58.032Z,20.97
2019-03-30T03:42:26.405Z,22.67
2019-03-30T03:44:54.802Z,25.08
2019-03-30T03:47:23.168Z,23.83
2019-03-30T03:49:51.561Z,24.43
2019-03-30T03:52:20.302Z,22.77
2019-03-30T03:54:48.705Z,21.87
2019-03-30T03:57:17.066Z,22.32
2019-03-30T03:59:45.472Z,24.47
2019-03-30T04:02:13.856Z,25.70
2019-03-30T04:04:46.785Z,22.62
2019-03-30T04:07:12.295Z,24.05
2019-03-30T04:09:42.327Z,22.22
2019-03-30T04:12:10.724Z,20.97
2019-03-30T04:14:39.100Z,22.13
2019-03-30T04:17:07.501Z,23.85
2019-03-30T04:19:35.885Z,20.45
2019-03-30T04:22:04.271Z,25.55
2019-03-30T04:24:32.650Z,23.87
2019-03-30T04:27:01.070Z,25.00
2019-03-30T04:29:29.432Z,25.55
2019-03-30T04:31:57.820Z,26.48
2019-03-30T04:34:26.198Z,28.38
2019-03-30T04:36:54.610Z,25.65
2019-03-30T04:39:22.985Z,26.80
2019-03-30T04:41:51.387Z,27.58
2019-03-30T04:44:19.784Z,26.37
2019-03-30T04:46:48.172Z,23.18
2019-03-30T04:49:16.564Z,31.75
2019-03-30T04:51:56.850Z,26.57
2019-03-30T04:54:14.983Z,30.20
2019-03-30T04:56:43.389Z,26.12
2019-03-30T04:59:11.760Z,29.37
2019-03-30T05:01:40.164Z,23.35
2019-03-30T05:04:08.544Z,27.48
2019-03-30T05:06:36.950Z,25.45
2019-03-30T05:09:06.190Z,24.45
2019-03-30T05:11:34.575Z,25.55
2019-03-30T05:14:03.049Z,26.97
2019-03-30T05:16:31.441Z,25.37
2019-03-30T05:18:59.813Z,25.80
2019-03-30T05:21:28.194Z,22.25
2019-03-30T05:23:56.575Z,23.45
2019-03-30T05:26:24.959Z,23.50
2019-03-30T05:28:53.366Z,25.25
2019-03-30T05:31:21.751Z,25.20
2019-03-30T05:33:50.136Z,29.35
2019-03-30T05:36:19.752Z,25.65
2019-03-30T05:38:48.118Z,26.33
2019-03-30T05:41:17.844Z,26.90
2019-03-30T05:43:46.210Z,29.27
2019-03-30T05:46:14.602Z,24.50
2019-03-30T05:48:42.988Z,27.58
2019-03-30T05:51:11.379Z,28.07
2019-03-30T05:53:39.742Z,31.25
2019-03-30T05:56:08.137Z,27.40
2019-03-30T05:58:36.529Z,32.20
2019-03-30T06:01:04.901Z,26.42
2019-03-30T06:03:33.283Z,26.35
2019-03-30T06:06:01.649Z,24.10
2019-03-30T06:08:30.043Z,27.58
2019-03-30T06:10:58.415Z,23.20
2019-03-30T06:13:26.800Z,26.10
2019-03-30T06:15:55.275Z,25.95
2019-03-30T06:18:23.680Z,27.58
2019-03-30T06:20:52.064Z,24.65
2019-03-30T06:23:20.463Z,28.27
2019-03-30T06:25:48.832Z,30.75
2019-03-30T06:28:17.238Z,26.75
2019-03-30T06:30:45.873Z,30.60
2019-03-30T06:33:14.250Z,31.33
2019-03-30T06:35:43.810Z,27.07
2019-03-30T06:38:12.240Z,26.75
2019-03-30T06:40:40.773Z,27.22
2019-03-30T06:43:09.249Z,23.90
2019-03-30T06:45:37.665Z,25.60
2019-03-30T06:48:06.111Z,23.35
2019-03-30T06:50:34.496Z,24.18
2019-03-30T06:53:03.037Z,23.18
2019-03-30T06:55:31.424Z,24.80
2019-03-30T06:58:07.790Z,25.75
2019-03-30T07:00:36.254Z,23.47
2019-03-30T07:03:05.412Z,22.42
2019-03-30T09:03:22.151Z,28.52
2019-03-30T09:05:50.579Z,29.90
2019-03-30T09:08:18.965Z,23.12
2019-03-30T09:10:47.375Z,28.50
2019-03-30T09:13:15.758Z,26.82
2019-03-30T09:15:44.158Z,25.50
2019-03-30T09:18:12.546Z,23.87
2019-03-30T09:20:40.955Z,25.55
2019-03-30T09:23:09.319Z,26.70
2019-03-30T09:25:37.711Z,26.25
2019-03-30T09:28:06.125Z,24.43
2019-03-30T09:30:34.524Z,24.82
2019-03-30T09:33:02.909Z,25.80
2019-03-30T09:35:31.308Z,27.98
2019-03-30T09:37:59.692Z,30.95
2019-03-30T09:40:28.084Z,38.15
2019-03-30T09:42:56.464Z,29.48
2019-03-30T09:45:24.922Z,28.55
2019-03-30T09:47:53.312Z,28.45
2019-03-30T09:50:21.768Z,24.25
2019-03-30T09:52:50.157Z,27.13
2019-03-30T09:55:18.555Z,26.33
2019-03-30T09:57:46.933Z,24.25
2019-03-30T10:00:15.382Z,24.52
2019-03-30T10:02:43.692Z,25.12
2019-03-30T10:05:12.694Z,23.65
2019-03-30T10:07:41.525Z,23.62
2019-03-30T10:10:11.793Z,24.60
2019-03-30T10:12:40.639Z,27.02
2019-03-30T10:15:08.994Z,24.77
2019-03-30T10:17:37.371Z,26.42
2019-03-30T10:20:08.852Z,26.85
2019-03-30T10:22:37.221Z,27.10
2019-03-30T10:25:06.305Z,24.35
2019-03-30T10:27:34.670Z,23.95
2019-03-30T10:30:03.222Z,23.85
2019-03-30T10:32:31.624Z,25.35
2019-03-30T10:35:00.031Z,20.68
2019-03-30T10:37:28.386Z,23.10
2019-03-30T10:39:56.758Z,26.45
2019-03-30T10:42:25.955Z,25.62
2019-03-30T10:44:54.327Z,26.10
2019-03-30T10:47:22.714Z,21.12
2019-03-30T10:49:51.023Z,24.27
2019-03-30T10:52:19.437Z,28.70
2019-03-30T10:54:52.975Z,23.05
2019-03-30T10:57:17.860Z,28.67
2019-03-30T10:59:46.240Z,25.88
2019-03-30T11:02:14.630Z,29.87
2019-03-30T11:04:42.936Z,27.35
2019-03-30T11:07:12.957Z,24.92
2019-03-30T11:09:41.330Z,22.30
2019-03-30T11:12:09.651Z,28.50
2019-03-30T11:14:38.063Z,27.05
2019-03-30T11:17:06.443Z,24.23
2019-03-30T11:19:34.823Z,18.92
2019-03-30T11:22:03.603Z,22.90
2019-03-30T11:24:32.068Z,27.95
2019-03-30T11:27:00.454Z,24.50
2019-03-30T11:29:28.768Z,24.90
2019-03-30T11:31:58.421Z,23.75
2019-03-30T11:34:26.804Z,24.18
2019-03-30T11:36:55.208Z,24.18
2019-03-30T11:39:23.686Z,22.95
2019-03-30T11:41:52.055Z,25.55
2019-03-30T11:44:20.435Z,21.95
2019-03-30T11:46:48.832Z,24.30
2019-03-30T11:49:17.239Z,25.62
2019-03-30T11:51:45.656Z,21.70
2019-03-30T11:54:14.054Z,27.58
2019-03-30T11:56:42.486Z,22.32
2019-03-30T11:59:10.867Z,23.80
2019-03-30T12:01:39.254Z,22.07
2019-03-30T12:04:07.655Z,16.40
2019-03-30T12:06:36.030Z,20.00
2019-03-30T12:09:07.467Z,20.52
2019-03-30T12:11:36.321Z,21.23
2019-03-30T12:14:04.719Z,20.88
2019-03-30T12:16:33.171Z,21.75
2019-03-30T12:19:01.571Z,18.25
2019-03-30T12:21:29.968Z,18.27
2019-03-30T12:23:58.363Z,14.85
2019-03-30T12:26:26.735Z,13.83
2019-03-30T12:28:55.122Z,11.93
2019-03-30T12:31:23.410Z,9.75
2019-03-30T12:33:51.942Z,8.73
2019-03-30T12:36:20.318Z,12.15
2019-03-30T12:38:48.722Z,11.00
2019-03-30T12:41:17.089Z,10.65
2019-03-30T12:43:45.492Z,9.68
2019-03-30T12:46:13.873Z,13.75
2019-03-30T12:48:42.263Z,12.70
2019-03-30T12:51:11.207Z,14.15
2019-03-30T12:53:50.087Z,9.73
2019-03-30T12:56:09.606Z,11.60
2019-03-30T12:58:38.067Z,11.12
2019-03-30T13:01:09.151Z,13.55
2019-03-30T13:03:37.566Z,13.68
2019-03-30T13:06:05.932Z,14.55
2019-03-30T13:08:34.319Z,18.10
2019-03-30T13:11:02.713Z,17.07
2019-03-30T13:13:31.095Z,15.65
2019-03-30T13:15:59.494Z,18.92
2019-03-30T13:18:27.902Z,19.25
2019-03-30T13:20:56.513Z,20.75
2019-03-30T13:23:24.914Z,18.57
2019-03-30T13:26:03.491Z,21.68
2019-03-30T13:28:23.341Z,14.03
2019-03-30T13:30:51.711Z,16.07
2019-03-30T13:33:20.111Z,15.32
2019-03-30T13:35:48.488Z,16.23
2019-03-30T13:38:17.078Z,15.05
2019-03-30T13:40:45.552Z,14.90
2019-03-30T13:43:13.944Z,14.50
2019-03-30T13:45:42.311Z,15.93
2019-03-30T13:48:10.704Z,16.93
2019-03-30T13:50:39.093Z,18.07
2019-03-30T13:53:07.488Z,21.33
2019-03-30T13:55:35.874Z,19.07
2019-03-30T13:58:04.788Z,19.12
2019-03-30T14:00:33.192Z,18.48
2019-03-30T14:03:01.596Z,19.23
2019-03-30T14:05:29.979Z,17.15
2019-03-30T14:07:58.343Z,17.07
2019-03-30T14:10:26.743Z,17.80
2019-03-30T14:12:55.110Z,18.32
2019-03-30T14:15:23.432Z,19.73
2019-03-30T14:17:51.802Z,16.20
2019-03-30T14:20:20.201Z,19.00
2019-03-30T14:22:48.567Z,16.87
2019-03-30T14:25:16.958Z,19.55
2019-03-30T14:27:45.337Z,23.95
2019-03-30T14:30:13.727Z,19.75
2019-03-30T14:32:42.099Z,19.73
2019-03-30T14:35:10.573Z,19.05
2019-03-30T14:37:38.957Z,19.27
2019-03-30T14:40:07.973Z,18.65
2019-03-30T14:42:36.295Z,18.50
2019-03-30T14:45:08.590Z,15.48
2019-03-30T14:47:36.962Z,19.95
2019-03-30T14:50:07.913Z,15.38
2019-03-30T14:52:37.796Z,22.50
2019-03-30T14:55:07.820Z,19.92
2019-03-30T14:57:36.192Z,16.82
2019-03-30T15:00:07.305Z,17.70
2019-03-30T15:02:35.747Z,16.48
2019-03-30T15:05:06.478Z,13.85
2019-03-30T15:07:34.862Z,16.52
2019-03-30T15:10:04.399Z,16.17
2019-03-30T15:12:32.791Z,16.02
2019-03-30T15:15:01.174Z,18.25
2019-03-30T15:17:29.572Z,14.98
2019-03-30T15:19:57.958Z,14.70
2019-03-30T15:22:26.335Z,18.67
2019-03-30T15:24:54.726Z,14.58
2019-03-30T15:27:23.594Z,16.73
2019-03-30T15:29:51.941Z,15.53
2019-03-30T15:32:20.320Z,14.00
2019-03-30T15:34:48.719Z,13.10
2019-03-30T15:37:17.092Z,14.58
2019-03-30T15:39:45.490Z,15.03
2019-03-30T15:42:13.946Z,15.00
2019-03-30T15:44:42.251Z,17.37
2019-03-30T15:47:10.641Z,16.65
2019-03-30T15:49:39.009Z,14.23
2019-03-30T15:52:13.941Z,18.82
2019-03-30T15:54:37.489Z,11.00
2019-03-30T15:57:14.082Z,12.23
2019-03-30T15:59:35.886Z,12.70
2019-03-30T16:02:04.356Z,18.62
2019-03-30T16:04:32.731Z,17.02
2019-03-30T16:07:01.127Z,16.55
2019-03-30T16:09:29.508Z,15.40
2019-03-30T16:11:57.890Z,14.33
2019-03-30T16:14:26.338Z,19.40
2019-03-30T16:16:54.651Z,14.55
2019-03-30T16:19:23.112Z,16.82
2019-03-30T16:21:51.505Z,14.00
2019-03-30T16:24:19.889Z,13.48
2019-03-30T16:26:48.280Z,14.63
2019-03-30T16:29:16.656Z,12.13
2019-03-30T16:31:45.144Z,14.35
2019-03-30T16:34:13.490Z,12.95
2019-03-30T16:36:41.914Z,14.18
2019-03-30T16:39:10.297Z,16.55
2019-03-30T16:41:38.695Z,15.18
2019-03-30T16:44:07.075Z,19.62
2019-03-30T16:46:35.481Z,12.23
2019-03-30T16:49:03.861Z,16.75
2019-03-30T16:51:32.281Z,14.25
2019-03-30T16:54:00.658Z,15.65
2019-03-30T16:56:29.061Z,15.70
2019-03-30T16:58:57.440Z,17.50
2019-03-30T17:01:25.844Z,31.33
2019-03-30T17:03:54.207Z,15.85
2019-03-30T17:06:22.624Z,16.02
2019-03-30T17:08:50.995Z,14.53
2019-03-30T17:11:19.363Z,16.37
2019-03-30T17:13:47.766Z,15.98
2019-03-30T17:16:16.133Z,16.95
2019-03-30T17:18:44.548Z,15.55
2019-03-30T17:21:12.936Z,16.97
2019-03-30T17:23:41.340Z,14.18
2019-03-30T17:26:09.720Z,14.98
2019-03-30T17:28:38.124Z,19.12
2019-03-30T17:31:06.488Z,19.80
2019-03-30T17:33:34.892Z,21.95
2019-03-30T17:36:03.340Z,22.35
2019-03-30T17:38:31.732Z,22.75
2019-03-30T17:41:00.113Z,20.55
2019-03-30T17:43:28.518Z,21.65
2019-03-30T17:45:56.897Z,28.30
2019-03-30T17:48:25.295Z,37.28
2019-03-30T17:50:53.678Z,39.38
2019-03-30T17:53:22.076Z,39.73
2019-03-30T17:55:50.527Z,41.20
2019-03-30T17:58:18.915Z,42.67
2019-03-30T18:00:48.095Z,38.75
2019-03-30T18:03:16.475Z,41.58
2019-03-30T18:05:44.853Z,37.90
2019-03-30T18:08:13.362Z,35.00
2019-03-30T18:10:41.730Z,32.28
2019-03-30T18:13:10.063Z,28.02
2019-03-30T18:15:38.451Z,33.20
2019-03-30T18:18:06.834Z,31.48
2019-03-30T18:20:35.122Z,28.80
2019-03-30T18:23:03.435Z,25.52
2019-03-30T18:25:31.747Z,19.80
2019-03-30T18:28:00.146Z,17.27
2019-03-30T18:30:36.515Z,15.03
2019-03-30T18:33:05.115Z,13.72
2019-03-30T18:35:33.759Z,16.87
2019-03-30T18:38:03.447Z,14.40
2019-03-30T18:40:32.688Z,14.10
2019-03-30T18:43:02.571Z,12.05
2019-03-30T18:45:31.032Z,11.22
2019-03-30T18:48:12.988Z,16.02
2019-03-30T18:50:41.546Z,13.78
2019-03-30T18:53:09.996Z,13.60
2019-03-30T18:55:38.399Z,19.48
2019-03-30T18:58:06.784Z,17.85
2019-03-30T19:00:35.214Z,21.02
2019-03-30T19:03:03.525Z,19.92
2019-03-30T19:05:31.923Z,22.40
2019-03-30T19:08:00.305Z,22.00
2019-03-30T19:10:28.711Z,17.98
2019-03-30T19:12:57.075Z,17.25
2019-03-30T19:15:25.537Z,18.40
2019-03-30T19:17:53.864Z,17.62
2019-03-30T19:20:22.279Z,19.73
2019-03-30T19:22:50.664Z,20.02
2019-03-30T19:25:19.059Z,20.68
2019-03-30T19:27:47.374Z,23.80
2019-03-30T19:30:15.820Z,34.40
2019-03-30T19:32:44.200Z,28.00
2019-03-30T19:35:12.658Z,28.60
2019-03-30T19:37:41.031Z,30.30
2019-03-30T19:40:09.612Z,33.15
2019-03-30T19:42:38.031Z,24.23
2019-03-30T19:45:07.527Z,22.87
2019-03-30T19:47:36.859Z,21.65
2019-03-30T19:50:06.933Z,25.40
2019-03-30T19:52:40.200Z,23.75
2019-03-30T19:55:06.506Z,25.27
2019-03-30T19:57:34.878Z,26.60
2019-03-30T20:00:03.743Z,21.10
2019-03-30T20:02:32.143Z,21.30
2019-03-30T20:05:00.560Z,23.83
2019-03-30T20:07:28.934Z,23.40
2019-03-30T20:09:57.332Z,22.90
2019-03-30T20:12:25.723Z,27.20
2019-03-30T20:14:54.216Z,23.52
2019-03-30T20:17:22.705Z,22.93
2019-03-30T20:19:53.058Z,22.70
2019-03-30T20:22:21.641Z,19.17
2019-03-30T20:24:50.039Z,30.57
2019-03-30T20:27:18.419Z,24.80
2019-03-30T20:29:46.842Z,21.77
2019-03-30T20:32:15.246Z,23.87
2019-03-30T20:34:43.579Z,24.60
2019-03-30T20:37:11.953Z,26.20
2019-03-30T20:39:40.394Z,24.57
2019-03-30T20:42:08.757Z,25.77
2019-03-30T20:44:37.316Z,24.45
2019-03-30T20:47:05.757Z,21.20
2019-03-30T20:49:34.155Z,24.10
2019-03-30T20:52:02.521Z,27.22
2019-03-30T20:54:30.941Z,27.30
2019-03-30T20:56:59.495Z,25.52
2019-03-30T20:59:39.273Z,26.80
2019-03-30T21:01:58.144Z,24.32
2019-03-30T21:04:26.558Z,23.98
2019-03-30T21:06:54.862Z,24.37
2019-03-30T21:09:23.162Z,22.80
2019-03-30T21:11:51.751Z,29.90
2019-03-30T21:14:20.146Z,30.57
2019-03-30T21:16:48.552Z,29.32
2019-03-30T21:19:16.936Z,26.65
2019-03-30T21:21:45.324Z,31.35
2019-03-30T21:24:13.695Z,23.80
2019-03-30T21:26:42.096Z,24.18
2019-03-30T21:29:10.478Z,29.63
2019-03-30T21:31:38.888Z,25.75
2019-03-30T21:34:07.268Z,28.70
2019-03-30T21:36:35.727Z,24.37
2019-03-30T21:39:06.249Z,22.87
2019-03-30T21:41:34.635Z,27.85
2019-03-30T21:44:03.090Z,24.98
2019-03-30T21:46:31.522Z,25.50
2019-03-30T21:49:00.864Z,26.00
2019-03-30T21:51:29.276Z,29.77
2019-03-30T21:53:57.674Z,25.50
2019-03-30T21:56:26.161Z,28.42
2019-03-30T21:58:54.630Z,28.02
2019-03-30T22:01:23.039Z,28.98
2019-03-30T22:03:51.387Z,22.98
2019-03-30T22:06:19.851Z,28.90
2019-03-30T22:08:48.700Z,26.62
2019-03-30T22:11:17.102Z,26.40
2019-03-30T22:13:45.399Z,27.35
2019-03-30T22:16:13.757Z,26.95
2019-03-30T22:18:42.127Z,25.97
2019-03-30T22:21:10.528Z,31.25
2019-03-30T22:23:38.903Z,26.93
2019-03-30T22:26:07.471Z,27.27
2019-03-30T22:28:35.869Z,25.12
2019-03-30T22:31:04.266Z,27.10
2019-03-30T22:33:32.648Z,24.57
2019-03-30T22:36:01.048Z,26.73
2019-03-30T22:38:29.426Z,30.75
2019-03-30T22:40:57.840Z,29.65
2019-03-30T22:43:26.221Z,26.93
2019-03-30T22:45:54.623Z,23.80
2019-03-30T22:48:24.963Z,26.55
2019-03-30T22:50:53.381Z,37.70
2019-03-30T22:53:23.127Z,27.52
2019-03-30T22:55:51.515Z,29.10
2019-03-30T22:58:19.893Z,29.32
2019-03-30T23:01:01.766Z,27.95
2019-03-30T23:03:30.109Z,25.23
2019-03-30T23:05:58.547Z,32.03
2019-03-30T23:08:26.918Z,26.27
2019-03-30T23:10:55.317Z,26.82
2019-03-30T23:13:23.682Z,24.35
2019-03-30T23:15:52.075Z,21.17
2019-03-30T23:18:20.446Z,24.47
2019-03-30T23:20:48.830Z,27.48
2019-03-30T23:23:17.200Z,23.80
2019-03-30T23:25:45.610Z,25.50
2019-03-30T23:28:13.985Z,24.12
2019-03-30T23:30:53.582Z,23.65
2019-03-30T23:33:12.476Z,21.10
2019-03-30T23:35:40.869Z,22.95
2019-03-30T23:38:09.247Z,27.37
2019-03-30T23:40:37.623Z,25.55
2019-03-30T23:43:06.037Z,23.30
2019-03-30T23:45:34.407Z,25.00
2019-03-30T23:48:02.802Z,24.77
2019-03-30T23:50:31.167Z,24.57
2019-03-30T23:52:59.564Z,23.67
2019-03-30T23:55:27.945Z,26.93
2019-03-30T23:57:56.341Z,26.40
